Alpine, Virginia
Current Conditions -  °F | °C
As of 6:15 AM on Thursday 23 Oct 2014 (Local Time) from K8W2 Reporting Station
Overcast Overcast  
Wind Chill:   Ceiling: 3100
Heat Index:   Visibility: 10mi
Dew Point:   Wind: 3mph
Humidity: 77%   Direction: 340°NNW
Pressure: 30.01"   Gusts: NA
Location:  38.6726°N, 78.6691°W
Report Text: K8W2 231015Z AUTO 34003KT 10SM OVC031 08/04 A3001 RMK AO1 T00820043
Loading
Personal Weather Stations






























Interactive Weather Map
Tropical Storm Tracking
New forecast layout! Learn more

10-Day Weather Forecast

Advertisements
Track Severe Weather on mobile